Gizan, Saudi Arabia
Current Conditions -  °F | °C
As of 8:00 PM on Wednesday 26 Nov 2014 (Local Time) from OEGN Reporting Station
Scattered Clouds Scattered Clouds  
Wind Chill: 88°   Ceiling: Unl
Heat Index: 96°   Visibility: 6mi
Dew Point: 73°   Wind: 7mph
Humidity: 62%   Direction: 310°NW
Pressure: 29.88"   Gusts: NA
Location:  16.89°N, 42.55°E
Report Text: OEGN 261700Z 31006KT 9999 FEW030 SCT100 31/23 Q1012 NOSIG
Loading
Personal Weather Stations






























Interactive Weather Map New forecast layout! Learn more

10-Day Weather Forecast

Advertisements
Track Severe Weather on mobile